createdAt,value
2023-05-20T00:03:21.221Z,100210.06
2023-05-20T00:07:33.793Z,100207.84
2023-05-20T00:11:46.853Z,100205.63
2023-05-20T00:15:59.501Z,100203.22
2023-05-20T00:20:12.267Z,100202.56
2023-05-20T00:24:25.612Z,100209.13
2023-05-20T00:28:38.031Z,100200.78
2023-05-20T00:32:50.443Z,100200.97
2023-05-20T00:37:02.928Z,100204.31
2023-05-20T00:41:15.352Z,100215.56
2023-05-20T00:45:27.903Z,100214.34
2023-05-20T00:49:40.424Z,100211.59
2023-05-20T00:53:52.962Z,100215.78
2023-05-20T00:58:06.593Z,100215.66
2023-05-20T01:02:19.954Z,100202.03
2023-05-20T01:06:34.108Z,100212.44
2023-05-20T01:10:50.145Z,100214.69
2023-05-20T01:15:08.163Z,100200.28
2023-05-20T01:19:46.699Z,100182.97
2023-05-20T01:23:59.155Z,100189.72
2023-05-20T01:28:18.246Z,100182.88
2023-05-20T01:32:38.394Z,100187.78
2023-05-20T01:36:55.114Z,100183.78
2023-05-20T01:41:07.847Z,100185.88
2023-05-20T01:45:20.748Z,100179.03
2023-05-20T01:49:36.085Z,100192.63
2023-05-20T01:53:48.410Z,100188.59
2023-05-20T01:58:00.743Z,100177.91
2023-05-20T02:02:13.488Z,100180.38
2023-05-20T02:06:27.735Z,100181.19
2023-05-20T02:10:40.686Z,100183.72
2023-05-20T02:14:53.161Z,100188.56
2023-05-20T02:19:05.621Z,100183.75
2023-05-20T02:23:18.113Z,100177.44
2023-05-20T02:27:30.550Z,100179.91
2023-05-20T02:31:44.048Z,100173.72
2023-05-20T02:35:56.496Z,100180.28
2023-05-20T02:40:09.607Z,100182.22
2023-05-20T02:44:24.405Z,100191.97
2023-05-20T02:48:36.773Z,100188.16
2023-05-20T02:52:50.184Z,100186.56
2023-05-20T02:57:03.672Z,100185.78
2023-05-20T03:01:16.233Z,100187.03
2023-05-20T03:05:28.620Z,100193.72
2023-05-20T03:09:41.878Z,100182.91
2023-05-20T03:13:54.489Z,100179.34
2023-05-20T03:18:08.738Z,100174.44
2023-05-20T03:22:22.121Z,100167.47
2023-05-20T03:26:37.863Z,100168.44
2023-05-20T03:30:50.454Z,100171.66
2023-05-20T03:35:03.520Z,100173.47
2023-05-20T03:39:16.263Z,100178.41
2023-05-20T03:43:29.872Z,100182.72
2023-05-20T03:47:42.585Z,100170.50
2023-05-20T03:51:55.101Z,100177.91
2023-05-20T03:56:07.669Z,100178.50
2023-05-20T04:00:21.988Z,100176.38
2023-05-20T04:04:35.002Z,100185.56
2023-05-20T04:08:47.526Z,100185.88
2023-05-20T04:13:00.433Z,100181.56
2023-05-20T04:17:13.032Z,100176.25
2023-05-20T04:21:25.661Z,100173.28
2023-05-20T04:25:39.195Z,100172.50
2023-05-20T04:29:53.348Z,100171.88
2023-05-20T04:34:06.134Z,100171.19
2023-05-20T04:38:18.745Z,100167.28
2023-05-20T04:42:31.209Z,100172.56
2023-05-20T04:46:45.027Z,100165.81
2023-05-20T04:50:57.429Z,100170.19
2023-05-20T04:55:10.849Z,100167.28
2023-05-20T04:59:23.515Z,100170.66
2023-05-20T05:03:36.835Z,100173.59
2023-05-20T05:07:49.988Z,100172.13
2023-05-20T05:12:03.090Z,100168.31
2023-05-20T05:16:15.550Z,100167.28
2023-05-20T05:20:28.421Z,100172.22
2023-05-20T05:24:41.064Z,100174.31
2023-05-20T05:28:55.309Z,100171.03
2023-05-20T05:33:08.403Z,100179.94
2023-05-20T05:37:21.504Z,100163.88
2023-05-20T05:41:34.680Z,100161.94
2023-05-20T05:45:47.564Z,100156.63
2023-05-20T05:50:02.666Z,100169.22
2023-05-20T05:54:23.354Z,100160.00
2023-05-20T05:58:36.712Z,100155.06
2023-05-20T06:02:51.444Z,100167.16
2023-05-20T06:07:23.946Z,100159.16
2023-05-20T06:11:37.550Z,100159.88
2023-05-20T06:15:51.199Z,100143.84
2023-05-20T06:20:04.155Z,100144.06
2023-05-20T06:24:16.689Z,100131.25
2023-05-20T06:28:31.138Z,100120.56
2023-05-20T06:32:43.667Z,100117.66
2023-05-20T06:36:56.630Z,100122.00
2023-05-20T06:41:09.148Z,100114.94
2023-05-20T06:45:22.262Z,100118.56
2023-05-20T06:49:39.060Z,100098.56
2023-05-20T06:53:51.669Z,100105.97
2023-05-20T06:58:04.356Z,100107.09
2023-05-20T07:02:17.620Z,100104.03
2023-05-20T07:06:31.868Z,100098.53
2023-05-20T07:10:46.136Z,100109.47
2023-05-20T07:15:01.742Z,100093.66
2023-05-20T07:19:14.408Z,100097.03
2023-05-20T07:23:27.373Z,100097.47
2023-05-20T07:27:41.235Z,100091.06
2023-05-20T07:31:54.031Z,100087.16
2023-05-20T07:36:08.011Z,100086.16
2023-05-20T07:40:24.317Z,100073.50
2023-05-20T07:44:36.982Z,100058.66
2023-05-20T07:48:50.471Z,100064.56
2023-05-20T07:53:03.053Z,100052.50
2023-05-20T07:57:17.172Z,100050.16
2023-05-20T08:01:30.366Z,100035.88
2023-05-20T08:05:42.959Z,100028.38
2023-05-20T08:09:55.910Z,100006.38
2023-05-20T08:14:08.646Z,100002.03
2023-05-20T08:18:27.813Z,99997.56
2023-05-20T08:22:41.109Z,99989.47
2023-05-20T08:26:53.652Z,99983.03
2023-05-20T08:31:09.022Z,99969.69
2023-05-20T08:35:24.017Z,99964.75
2023-05-20T08:39:37.584Z,99965.97
2023-05-20T08:43:52.590Z,99952.19
2023-05-20T08:48:05.796Z,99937.09
2023-05-20T08:52:22.878Z,99926.66
2023-05-20T08:56:37.176Z,99913.28
2023-05-20T09:00:50.154Z,99896.72
2023-05-20T09:05:03.321Z,99882.63
2023-05-20T09:09:16.241Z,99879.91
2023-05-20T09:13:31.134Z,99879.38
2023-05-20T09:17:43.721Z,99884.13
2023-05-20T09:21:56.544Z,99862.53
2023-05-20T09:26:09.133Z,99870.09
2023-05-20T09:30:22.572Z,99877.47
2023-05-20T09:34:36.572Z,99867.97
2023-05-20T09:38:53.821Z,99868.06
2023-05-20T09:43:08.192Z,99866.97
2023-05-20T09:47:21.125Z,99861.72
2023-05-20T09:51:34.719Z,99866.75
2023-05-20T09:55:47.422Z,99874.88
2023-05-20T09:59:59.801Z,99878.47
2023-05-20T10:04:14.318Z,99871.63
2023-05-20T10:08:43.159Z,99875.72
2023-05-20T10:13:10.397Z,99877.94
2023-05-20T10:17:25.451Z,99880.22
2023-05-20T10:21:38.421Z,99873.84
2023-05-20T10:25:55.380Z,99877.50
2023-05-20T10:30:17.000Z,99868.16
2023-05-20T10:34:29.563Z,99857.59
2023-05-20T10:38:52.768Z,99863.56
2023-05-20T10:43:13.003Z,99874.16
2023-05-20T10:47:26.486Z,99868.38
2023-05-20T10:51:39.670Z,99870.50
2023-05-20T10:55:53.726Z,99882.00
2023-05-20T11:00:07.000Z,99860.56
2023-05-20T11:04:19.923Z,99857.13
2023-05-20T11:08:32.534Z,99871.56
2023-05-20T11:12:45.161Z,99870.78
2023-05-20T11:16:59.751Z,99858.38
2023-05-20T11:21:12.326Z,99866.97
2023-05-20T11:25:24.734Z,99872.66
2023-05-20T11:29:38.273Z,99861.41
2023-05-20T11:33:52.482Z,99865.75
2023-05-20T11:38:09.473Z,99866.59
2023-05-20T11:42:22.216Z,99864.94
2023-05-20T11:46:44.744Z,99863.94
2023-05-20T11:50:59.947Z,99861.03
2023-05-20T11:55:16.172Z,99856.25
2023-05-20T11:59:28.858Z,99861.78
2023-05-20T12:03:41.413Z,99851.38
2023-05-20T12:07:56.032Z,99856.47
2023-05-20T12:12:08.982Z,99845.34
2023-05-20T12:16:21.375Z,99848.56
2023-05-20T12:20:37.456Z,99852.94
2023-05-20T12:24:51.835Z,99849.09
2023-05-20T12:29:05.426Z,99855.44
2023-05-20T12:33:17.835Z,99846.47
2023-05-20T12:37:30.609Z,99850.34
2023-05-20T12:41:43.125Z,99847.19
2023-05-20T12:45:56.309Z,99855.31
2023-05-20T12:50:09.169Z,99844.28
2023-05-20T12:54:21.755Z,99856.19
2023-05-20T12:58:34.268Z,99856.66
2023-05-20T13:02:46.731Z,99854.44
2023-05-20T13:06:59.527Z,99855.72
2023-05-20T13:11:12.114Z,99859.72
2023-05-20T13:15:24.505Z,99869.25
2023-05-20T13:19:38.346Z,99865.06
2023-05-20T13:23:50.834Z,99868.34
2023-05-20T13:28:06.253Z,99860.41
2023-05-20T13:32:18.853Z,99859.91
2023-05-20T13:36:31.358Z,99864.13
2023-05-20T13:40:43.843Z,99853.47
2023-05-20T13:44:56.567Z,99851.78
2023-05-20T13:49:09.065Z,99849.53
2023-05-20T13:53:21.670Z,99832.75
2023-05-20T13:57:34.290Z,99826.34
2023-05-20T14:01:46.883Z,99826.50
2023-05-20T14:06:00.167Z,99827.63
2023-05-20T14:10:12.685Z,99824.91
2023-05-20T14:14:25.537Z,99825.56
2023-05-20T14:18:38.041Z,99812.34
2023-05-20T14:22:50.574Z,99810.63
2023-05-20T14:27:03.046Z,99799.69
2023-05-20T14:31:15.621Z,99801.97
2023-05-20T14:35:28.079Z,99813.97
2023-05-20T14:39:40.557Z,99807.38
2023-05-20T14:43:53.016Z,99810.69
2023-05-20T14:48:05.981Z,99807.16
2023-05-20T14:52:21.891Z,99823.34
2023-05-20T14:56:34.640Z,99818.41
2023-05-20T15:00:47.143Z,99822.94
2023-05-20T15:04:59.576Z,99808.97
2023-05-20T15:09:12.153Z,99797.56
2023-05-20T15:13:24.611Z,99809.16
2023-05-20T15:17:37.210Z,99811.91
2023-05-20T15:21:52.004Z,99825.19
2023-05-20T15:26:05.442Z,99827.22
2023-05-20T15:30:18.219Z,99825.28
2023-05-20T15:34:30.822Z,99835.41
2023-05-20T15:38:44.554Z,99837.63
2023-05-20T15:42:57.557Z,99839.25
2023-05-20T15:47:10.094Z,99830.22
2023-05-20T15:51:23.479Z,99832.72
2023-05-20T15:55:36.323Z,99845.16
2023-05-20T15:59:48.799Z,99849.28
2023-05-20T16:04:01.287Z,99853.88
2023-05-20T16:08:13.922Z,99859.47
2023-05-20T16:12:26.786Z,99859.28
2023-05-20T16:16:39.783Z,99871.75
2023-05-20T16:20:52.428Z,99877.16
2023-05-20T16:25:05.210Z,99890.53
2023-05-20T16:29:17.762Z,99892.53
2023-05-20T16:33:30.345Z,99888.06
2023-05-20T16:37:43.371Z,99902.94
2023-05-20T16:41:55.972Z,99903.53
2023-05-20T16:46:08.554Z,99902.34
2023-05-20T16:50:23.482Z,99905.06
2023-05-20T16:54:38.570Z,99889.81
2023-05-20T16:58:53.004Z,99879.66
2023-05-20T17:03:05.989Z,99870.69
2023-05-20T17:07:18.620Z,99873.25
2023-05-20T17:11:31.377Z,99884.94
2023-05-20T17:15:43.869Z,99887.19
2023-05-20T17:19:56.597Z,99871.28
2023-05-20T17:24:09.184Z,99877.47
2023-05-20T17:28:21.790Z,99867.44
2023-05-20T17:32:34.236Z,99864.06
2023-05-20T17:36:46.845Z,99867.81
2023-05-20T17:40:59.320Z,99880.69
2023-05-20T17:45:12.082Z,99890.16
2023-05-20T17:49:24.644Z,99888.25
2023-05-20T17:53:37.088Z,99888.09
2023-05-20T17:57:49.663Z,99892.97
2023-05-20T18:02:02.171Z,99898.38
2023-05-20T18:06:14.833Z,99900.53
2023-05-20T18:10:27.324Z,99904.09
2023-05-20T18:14:39.732Z,99913.31
2023-05-20T18:18:52.355Z,99920.44
2023-05-20T18:23:04.863Z,99916.34
2023-05-20T18:27:17.347Z,99906.88
2023-05-20T18:31:30.145Z,99905.69
2023-05-20T18:35:42.630Z,99902.16
2023-05-20T18:39:57.489Z,99899.91
2023-05-20T18:44:09.879Z,99911.25
2023-05-20T18:48:26.697Z,99917.97
2023-05-20T18:52:39.813Z,99918.69
2023-05-20T18:56:52.878Z,99921.47
2023-05-20T19:01:05.382Z,99916.66
2023-05-20T19:05:18.016Z,99921.38
2023-05-20T19:09:30.411Z,99937.16
2023-05-20T19:13:42.927Z,99941.50
2023-05-20T19:17:55.507Z,99949.03
2023-05-20T19:22:09.270Z,99944.34
2023-05-20T19:26:22.316Z,99952.47
2023-05-20T19:30:34.823Z,99937.72
2023-05-20T19:34:47.268Z,99942.59
2023-05-20T19:39:00.512Z,99940.19
2023-05-20T19:43:13.298Z,99941.75
2023-05-20T19:47:25.703Z,99951.72
2023-05-20T19:51:38.171Z,99954.44
2023-05-20T19:55:50.957Z,99934.25
2023-05-20T20:00:04.789Z,99931.16
2023-05-20T20:04:25.104Z,99932.94
2023-05-20T20:08:40.578Z,99927.75
2023-05-20T20:12:52.937Z,99920.81
2023-05-20T20:17:06.518Z,99924.13
2023-05-20T20:21:19.037Z,99915.75
2023-05-20T20:25:35.047Z,99909.31
2023-05-20T20:29:47.762Z,99911.22
2023-05-20T20:34:00.156Z,99916.91
2023-05-20T20:38:12.584Z,99911.38
2023-05-20T20:42:24.996Z,99901.09
2023-05-20T20:46:37.964Z,99902.56
2023-05-20T20:50:50.329Z,99900.88
2023-05-20T20:55:02.741Z,99907.66
2023-05-20T20:59:16.174Z,99901.50
2023-05-20T21:03:28.619Z,99896.84
2023-05-20T21:07:43.864Z,99888.66
2023-05-20T21:11:57.441Z,99899.50
2023-05-20T21:16:09.936Z,99892.00
2023-05-20T21:20:22.410Z,99899.63
2023-05-20T21:24:34.758Z,99897.22
2023-05-20T21:28:47.126Z,99896.22
2023-05-20T21:32:59.565Z,99897.69
2023-05-20T21:37:11.962Z,99882.94
2023-05-20T21:41:24.770Z,99886.53
2023-05-20T21:45:37.545Z,99880.59
2023-05-20T21:49:50.063Z,99885.03
2023-05-20T21:54:02.586Z,99880.69
2023-05-20T21:58:15.063Z,99869.81
2023-05-20T22:02:27.550Z,99858.97
2023-05-20T22:06:40.000Z,99859.78
2023-05-20T22:10:52.391Z,99853.38
2023-05-20T22:15:06.089Z,99842.66
2023-05-20T22:19:18.506Z,99830.88
2023-05-20T22:23:30.982Z,99826.53
2023-05-20T22:27:43.814Z,99824.72
2023-05-20T22:31:56.132Z,99826.06
2023-05-20T22:36:09.928Z,99826.38
2023-05-20T22:40:22.428Z,99834.03
2023-05-20T22:44:34.946Z,99840.16
2023-05-20T22:48:48.616Z,99831.69
2023-05-20T22:53:01.345Z,99834.78
2023-05-20T22:57:13.791Z,99832.91
2023-05-20T23:01:26.257Z,99824.19
2023-05-20T23:05:38.853Z,99815.38
2023-05-20T23:09:51.686Z,99814.56
2023-05-20T23:14:04.012Z,99815.06
2023-05-20T23:18:16.440Z,99810.81
2023-05-20T23:22:30.491Z,99815.41
2023-05-20T23:26:43.683Z,99805.34
2023-05-20T23:30:56.804Z,99811.38
2023-05-20T23:35:11.837Z,99796.44
2023-05-20T23:39:24.418Z,99780.47
2023-05-20T23:43:36.754Z,99773.91
2023-05-20T23:47:49.554Z,99776.09
2023-05-20T23:52:02.052Z,99771.47
2023-05-20T23:56:14.452Z,99766.25
